createdAt,value
2024-02-26T00:00:13.794Z,97608.45
2024-02-26T00:03:03.385Z,97612.23
2024-02-26T00:05:33.117Z,97611.19
2024-02-26T00:08:05.480Z,97611.17
2024-02-26T00:10:34.929Z,97611.71
2024-02-26T00:13:03.730Z,97607.64
2024-02-26T00:15:32.880Z,97610.50
2024-02-26T00:18:02.279Z,97616.44
2024-02-26T00:20:31.200Z,97615.85
2024-02-26T00:22:59.952Z,97609.23
2024-02-26T00:25:29.224Z,97603.98
2024-02-26T00:27:59.199Z,97604.64
2024-02-26T00:30:27.983Z,97600.35
2024-02-26T00:32:57.119Z,97603.92
2024-02-26T00:35:25.994Z,97608.31
2024-02-26T00:37:54.707Z,97603.95
2024-02-26T00:40:23.790Z,97603.58
2024-02-26T00:42:52.671Z,97598.40
2024-02-26T00:45:21.659Z,97598.79
2024-02-26T00:47:51.488Z,97597.23
2024-02-26T00:50:20.436Z,97592.64
2024-02-26T00:52:49.504Z,97591.30
2024-02-26T00:55:18.440Z,97593.36
2024-02-26T00:57:47.692Z,97589.60
2024-02-26T01:00:16.843Z,97587.39
2024-02-26T01:02:48.390Z,97586.02
2024-02-26T01:05:18.170Z,97586.36
2024-02-26T01:07:47.332Z,97586.73
2024-02-26T01:10:16.357Z,97585.88
2024-02-26T01:12:46.259Z,97585.58
2024-02-26T01:15:14.987Z,97584.23
2024-02-26T01:17:44.485Z,97585.44
2024-02-26T01:20:13.461Z,97586.69
2024-02-26T01:22:42.562Z,97585.38
2024-02-26T01:25:11.618Z,97583.68
2024-02-26T01:27:42.789Z,97579.08
2024-02-26T01:30:12.430Z,97578.41
2024-02-26T01:32:41.796Z,97577.08
2024-02-26T01:35:12.599Z,97574.55
2024-02-26T01:37:41.794Z,97573.11
2024-02-26T01:40:11.413Z,97571.63
2024-02-26T01:42:41.641Z,97572.05
2024-02-26T01:45:18.490Z,97573.84
2024-02-26T01:47:47.742Z,97570.91
2024-02-26T01:50:16.834Z,97565.75
2024-02-26T01:52:50.761Z,97560.93
2024-02-26T01:55:20.960Z,97562.13
2024-02-26T01:57:50.565Z,97556.83
2024-02-26T02:00:21.845Z,97549.65
2024-02-26T02:02:52.138Z,97549.88
2024-02-26T02:05:22.136Z,97551.02
2024-02-26T02:07:51.335Z,97558.96
2024-02-26T02:10:24.621Z,97560.69
2024-02-26T02:12:54.140Z,97560.14
2024-02-26T02:15:23.481Z,97555.48
2024-02-26T02:17:53.062Z,97557.85
2024-02-26T02:20:27.118Z,97555.72
2024-02-26T02:22:56.186Z,97557.54
2024-02-26T02:25:25.149Z,97557.09
2024-02-26T02:27:56.247Z,97558.14
2024-02-26T02:30:28.171Z,97556.95
2024-02-26T02:32:59.270Z,97555.85
2024-02-26T02:35:28.108Z,97550.75
2024-02-26T02:37:58.682Z,97550.16
2024-02-26T02:40:27.585Z,97551.60
2024-02-26T02:42:56.446Z,97550.43
2024-02-26T02:45:25.245Z,97546.23
2024-02-26T02:47:54.504Z,97542.81
2024-02-26T02:50:23.411Z,97541.70
2024-02-26T02:52:52.092Z,97544.19
2024-02-26T02:55:21.442Z,97542.98
2024-02-26T02:57:50.206Z,97551.20
2024-02-26T03:00:19.249Z,97546.97
2024-02-26T03:02:48.697Z,97544.27
2024-02-26T03:05:18.790Z,97540.93
2024-02-26T03:07:47.395Z,97540.25
2024-02-26T03:10:16.431Z,97534.61
2024-02-26T03:12:45.690Z,97536.35
2024-02-26T03:15:14.655Z,97541.85
2024-02-26T03:17:43.869Z,97549.55
2024-02-26T03:20:13.040Z,97546.98
2024-02-26T03:22:42.264Z,97550.02
2024-02-26T03:25:11.317Z,97549.67
2024-02-26T03:27:39.989Z,97548.89
2024-02-26T03:30:09.490Z,97546.86
2024-02-26T03:32:39.220Z,97543.06
2024-02-26T03:35:08.901Z,97540.08
2024-02-26T03:37:37.726Z,97538.33
2024-02-26T03:40:07.956Z,97538.88
2024-02-26T03:42:36.615Z,97536.85
2024-02-26T03:45:06.107Z,97534.45
2024-02-26T03:47:35.343Z,97532.58
2024-02-26T03:50:05.443Z,97531.05
2024-02-26T03:52:34.629Z,97532.23
2024-02-26T03:55:03.705Z,97535.65
2024-02-26T03:57:32.597Z,97539.09
2024-02-26T04:00:01.746Z,97544.58
2024-02-26T04:02:40.067Z,97543.01
2024-02-26T04:05:12.178Z,97546.73
2024-02-26T04:07:42.615Z,97547.47
2024-02-26T04:10:12.234Z,97544.59
2024-02-26T04:12:45.013Z,97543.70
2024-02-26T04:15:14.121Z,97546.75
2024-02-26T04:17:43.029Z,97548.61
2024-02-26T04:20:16.082Z,97546.94
2024-02-26T04:22:45.360Z,97549.55
2024-02-26T04:25:15.321Z,97542.94
2024-02-26T04:27:44.141Z,97546.08
2024-02-26T04:30:13.533Z,97547.55
2024-02-26T04:32:42.760Z,97545.91
2024-02-26T04:35:11.860Z,97553.65
2024-02-26T04:37:40.567Z,97556.30
2024-02-26T04:40:09.821Z,97552.08
2024-02-26T04:42:39.378Z,97551.98
2024-02-26T04:45:09.966Z,97555.41
2024-02-26T04:47:38.759Z,97548.70
2024-02-26T04:50:08.927Z,97549.68
2024-02-26T04:52:38.346Z,97549.07
2024-02-26T04:55:07.386Z,97547.12
2024-02-26T04:57:36.849Z,97543.71
2024-02-26T05:00:07.063Z,97541.65
2024-02-26T05:02:39.763Z,97539.59
2024-02-26T05:05:10.208Z,97540.21
2024-02-26T05:07:43.861Z,97541.29
2024-02-26T05:10:12.704Z,97539.52
2024-02-26T05:12:44.202Z,97536.91
2024-02-26T05:15:17.676Z,97533.48
2024-02-26T05:17:46.990Z,97533.10
2024-02-26T05:20:15.841Z,97533.58
2024-02-26T05:22:46.305Z,97537.16
2024-02-26T05:25:16.877Z,97543.38
2024-02-26T05:27:47.599Z,97542.76
2024-02-26T05:30:16.557Z,97543.29
2024-02-26T05:32:45.457Z,97546.53
2024-02-26T05:35:15.263Z,97546.73
2024-02-26T05:37:43.941Z,97549.25
2024-02-26T05:40:13.629Z,97544.70
2024-02-26T05:42:46.488Z,97541.48
2024-02-26T05:45:15.299Z,97545.48
2024-02-26T05:47:44.325Z,97546.12
2024-02-26T05:50:14.379Z,97551.00
2024-02-26T05:52:44.278Z,97548.12
2024-02-26T05:55:14.212Z,97549.14
2024-02-26T05:57:46.211Z,97551.33
2024-02-26T06:00:16.165Z,97547.80
2024-02-26T06:02:48.156Z,97548.73
2024-02-26T06:05:16.904Z,97550.98
2024-02-26T06:07:46.074Z,97552.15
2024-02-26T06:10:18.411Z,97557.23
2024-02-26T06:12:47.129Z,97560.11
2024-02-26T06:15:16.531Z,97561.56
2024-02-26T06:17:45.904Z,97563.02
2024-02-26T06:20:14.865Z,97557.11
2024-02-26T06:22:44.700Z,97553.10
2024-02-26T06:25:14.432Z,97557.64
2024-02-26T06:27:43.134Z,97562.91
2024-02-26T06:30:12.799Z,97561.63
2024-02-26T06:32:42.465Z,97562.63
2024-02-26T06:35:13.284Z,97563.45
2024-02-26T06:37:43.285Z,97566.92
2024-02-26T06:40:12.666Z,97567.00
2024-02-26T06:42:41.366Z,97571.23
2024-02-26T06:45:10.695Z,97573.92
2024-02-26T06:47:39.597Z,97570.99
2024-02-26T06:50:10.709Z,97575.18
2024-02-26T06:52:40.393Z,97581.31
2024-02-26T06:55:09.991Z,97582.13
2024-02-26T06:57:39.238Z,97585.92
2024-02-26T07:00:08.563Z,97593.73
2024-02-26T07:02:39.969Z,97592.42
2024-02-26T07:05:10.065Z,97596.15
2024-02-26T07:07:51.865Z,97603.02
2024-02-26T07:10:24.194Z,97607.67
2024-02-26T07:12:54.461Z,97615.23
2024-02-26T07:15:23.413Z,97612.86
2024-02-26T07:17:52.593Z,97611.07
2024-02-26T07:20:21.363Z,97602.65
2024-02-26T07:22:58.498Z,97606.41
2024-02-26T07:25:28.987Z,97607.27
2024-02-26T07:27:59.900Z,97606.83
2024-02-26T07:30:31.184Z,97607.60
2024-02-26T07:33:00.104Z,97604.09
2024-02-26T07:35:29.853Z,97604.30
2024-02-26T07:37:58.593Z,97613.98
2024-02-26T07:40:29.518Z,97619.89
2024-02-26T07:42:58.872Z,97623.19
2024-02-26T07:45:27.826Z,97623.59
2024-02-26T07:47:57.068Z,97621.38
2024-02-26T07:50:26.121Z,97627.14
2024-02-26T07:52:55.471Z,97626.02
2024-02-26T07:55:24.952Z,97624.95
2024-02-26T07:57:54.052Z,97621.80
2024-02-26T08:00:22.961Z,97621.89
2024-02-26T08:02:52.325Z,97623.66
2024-02-26T08:05:21.621Z,97629.30
2024-02-26T08:07:50.588Z,97619.32
2024-02-26T08:10:19.513Z,97621.82
2024-02-26T08:12:50.689Z,97623.76
2024-02-26T08:15:20.409Z,97625.02
2024-02-26T08:17:49.443Z,97621.15
2024-02-26T08:20:18.751Z,97623.59
2024-02-26T08:22:48.275Z,97630.69
2024-02-26T08:25:18.332Z,97630.96
2024-02-26T08:27:48.984Z,97634.38
2024-02-26T08:30:18.476Z,97636.17
2024-02-26T08:32:51.598Z,97634.87
2024-02-26T08:35:21.982Z,97631.79
2024-02-26T08:37:50.833Z,97628.27
2024-02-26T08:40:20.972Z,97625.81
2024-02-26T08:42:50.667Z,97621.77
2024-02-26T08:45:23.841Z,97616.35
2024-02-26T08:47:53.776Z,97613.26
2024-02-26T08:50:23.145Z,97613.24
2024-02-26T08:52:52.454Z,97610.14
2024-02-26T08:55:25.185Z,97604.70
2024-02-26T08:57:55.433Z,97604.13
2024-02-26T09:00:24.310Z,97606.61
2024-02-26T09:02:53.607Z,97605.66
2024-02-26T09:05:25.803Z,97606.39
2024-02-26T09:07:55.514Z,97600.18
2024-02-26T09:10:27.244Z,97603.80
2024-02-26T09:12:58.988Z,97605.78
2024-02-26T09:15:28.317Z,97602.27
2024-02-26T09:17:58.180Z,97602.41
2024-02-26T09:20:27.650Z,97599.59
2024-02-26T09:22:56.346Z,97600.64
2024-02-26T09:25:25.099Z,97598.95
2024-02-26T09:28:07.981Z,97600.41
2024-02-26T09:30:36.814Z,97603.98
2024-02-26T09:33:06.047Z,97600.23
2024-02-26T09:35:35.527Z,97605.38
2024-02-26T09:38:04.855Z,97608.69
2024-02-26T09:40:34.387Z,97609.98
2024-02-26T09:43:06.533Z,97611.64
2024-02-26T09:45:36.951Z,97611.70
2024-02-26T09:48:09.497Z,97605.76
2024-02-26T09:50:39.044Z,97610.16
2024-02-26T09:53:11.800Z,97606.69
2024-02-26T09:55:41.054Z,97603.43
2024-02-26T09:58:11.985Z,97609.03
2024-02-26T10:00:43.965Z,97608.63
2024-02-26T10:03:17.284Z,97609.67
2024-02-26T10:05:47.070Z,97615.98
2024-02-26T10:08:16.416Z,97617.84
2024-02-26T10:10:45.212Z,97618.70
2024-02-26T10:13:14.152Z,97620.19
2024-02-26T10:15:42.970Z,97618.38
2024-02-26T10:18:11.836Z,97622.54
2024-02-26T10:20:41.266Z,97619.70
2024-02-26T10:23:10.034Z,97624.40
2024-02-26T10:25:38.702Z,97628.30
2024-02-26T10:28:09.132Z,97623.38
2024-02-26T10:30:39.143Z,97622.36
2024-02-26T10:33:09.007Z,97624.83
2024-02-26T10:35:42.061Z,97617.17
2024-02-26T10:38:11.402Z,97614.36
2024-02-26T10:40:40.128Z,97613.60
2024-02-26T10:43:08.991Z,97616.66
2024-02-26T10:45:38.733Z,97617.66
2024-02-26T10:48:13.579Z,97615.57
2024-02-26T10:50:45.289Z,97615.38
2024-02-26T10:53:18.996Z,97614.14
2024-02-26T10:56:00.613Z,97613.00
2024-02-26T10:58:30.441Z,97614.23
2024-02-26T11:00:59.938Z,97606.14
2024-02-26T11:03:33.913Z,97607.39
2024-02-26T11:06:05.632Z,97607.24
2024-02-26T11:08:37.872Z,97608.05
2024-02-26T11:11:09.692Z,97607.14
2024-02-26T11:13:47.227Z,97598.80
2024-02-26T11:16:18.292Z,97597.77
2024-02-26T11:18:52.231Z,97594.75
2024-02-26T11:21:33.500Z,97592.72
2024-02-26T11:24:04.357Z,97593.14
2024-02-26T11:26:33.401Z,97588.73
2024-02-26T11:29:04.811Z,97589.35
2024-02-26T11:31:37.844Z,97588.20
2024-02-26T11:34:11.396Z,97588.34
2024-02-26T11:36:41.054Z,97589.67
2024-02-26T11:39:09.827Z,97587.41
2024-02-26T11:41:38.755Z,97587.40
2024-02-26T11:44:08.620Z,97584.05
2024-02-26T11:46:43.573Z,97586.10
2024-02-26T11:49:28.258Z,97587.09
2024-02-26T11:51:59.265Z,97588.59
2024-02-26T11:54:50.628Z,97589.79
2024-02-26T11:57:29.442Z,97589.29
2024-02-26T12:00:13.960Z,97585.10
2024-02-26T12:02:50.995Z,97584.84
2024-02-26T12:05:30.587Z,97581.34
2024-02-26T12:08:08.436Z,97581.57
2024-02-26T12:10:45.156Z,97582.30
2024-02-26T12:13:20.146Z,97582.14
2024-02-26T12:15:59.761Z,97580.05
2024-02-26T12:18:32.105Z,97582.80
2024-02-26T12:21:05.330Z,97581.42
2024-02-26T12:23:34.392Z,97584.71
2024-02-26T12:26:06.795Z,97584.55
2024-02-26T12:28:44.791Z,97587.13
2024-02-26T12:31:13.672Z,97590.34
2024-02-26T12:33:42.590Z,97590.63
2024-02-26T12:36:11.787Z,97589.84
2024-02-26T12:38:40.756Z,97592.09
2024-02-26T12:41:10.294Z,97592.17
2024-02-26T12:43:39.601Z,97594.37
2024-02-26T12:46:09.233Z,97596.13
2024-02-26T12:48:39.642Z,97597.83
2024-02-26T12:51:11.923Z,97594.83
2024-02-26T12:53:41.221Z,97595.13
2024-02-26T12:56:11.244Z,97596.52
2024-02-26T12:58:42.189Z,97596.56
2024-02-26T13:01:16.383Z,97596.64
2024-02-26T13:03:46.330Z,97596.36
2024-02-26T13:06:16.061Z,97601.07
2024-02-26T13:08:45.252Z,97600.07
2024-02-26T13:11:15.044Z,97601.98
2024-02-26T13:13:44.077Z,97601.76
2024-02-26T13:16:38.676Z,97604.46
2024-02-26T13:19:12.178Z,97602.45
2024-02-26T13:21:41.576Z,97601.66
2024-02-26T13:24:11.612Z,97605.23
2024-02-26T13:26:45.998Z,97606.94
2024-02-26T13:29:20.387Z,97602.75
2024-02-26T13:31:49.254Z,97602.39
2024-02-26T13:34:27.140Z,97600.85
2024-02-26T13:36:56.671Z,97603.48
2024-02-26T13:39:26.957Z,97606.44
2024-02-26T13:41:56.529Z,97605.77
2024-02-26T13:44:25.902Z,97602.84
2024-02-26T13:46:54.583Z,97597.98
2024-02-26T13:49:23.613Z,97597.54
2024-02-26T13:51:52.914Z,97596.02
2024-02-26T13:54:23.904Z,97599.15
2024-02-26T13:56:56.062Z,97602.78
2024-02-26T13:59:27.666Z,97604.02
2024-02-26T14:02:00.132Z,97607.36
2024-02-26T14:04:29.604Z,97610.14
2024-02-26T14:06:58.786Z,97611.85
2024-02-26T14:09:35.635Z,97609.24
2024-02-26T14:12:13.229Z,97609.04
2024-02-26T14:14:44.648Z,97611.30
2024-02-26T14:17:14.455Z,97613.20
2024-02-26T14:19:46.749Z,97619.31
2024-02-26T14:22:19.543Z,97621.80
2024-02-26T14:24:50.490Z,97620.78
2024-02-26T14:27:23.805Z,97623.38
2024-02-26T14:29:53.020Z,97619.47
2024-02-26T14:32:21.924Z,97618.88
2024-02-26T14:34:53.786Z,97619.61
2024-02-26T14:37:26.943Z,97619.80
2024-02-26T14:39:56.555Z,97623.98
2024-02-26T14:42:26.039Z,97625.36
2024-02-26T14:44:56.352Z,97629.02
2024-02-26T14:47:25.530Z,97629.19
2024-02-26T14:49:58.498Z,97630.95
2024-02-26T14:52:27.668Z,97627.01
2024-02-26T14:54:56.433Z,97628.94
2024-02-26T14:57:26.057Z,97630.54
2024-02-26T15:00:00.957Z,97632.48
2024-02-26T15:02:31.989Z,97629.73
2024-02-26T15:05:00.910Z,97630.79
2024-02-26T15:07:30.393Z,97631.66
2024-02-26T15:10:00.965Z,97634.27
2024-02-26T15:12:30.080Z,97640.55
2024-02-26T15:15:02.058Z,97641.20
2024-02-26T15:17:33.891Z,97639.91
2024-02-26T15:20:07.371Z,97640.85
2024-02-26T15:22:40.991Z,97644.04
2024-02-26T15:25:15.594Z,97646.15
2024-02-26T15:27:46.188Z,97648.97
2024-02-26T15:30:15.439Z,97653.36
2024-02-26T15:32:46.308Z,97652.36
2024-02-26T15:35:16.681Z,97655.70
2024-02-26T15:37:45.884Z,97660.25
2024-02-26T15:40:14.725Z,97666.88
2024-02-26T15:42:43.863Z,97673.69
2024-02-26T15:45:12.907Z,97678.92
2024-02-26T15:47:43.040Z,97681.20
2024-02-26T15:50:12.474Z,97686.61
2024-02-26T15:52:41.924Z,97689.10
2024-02-26T15:55:17.096Z,97684.81
2024-02-26T15:57:47.788Z,97687.34
2024-02-26T16:00:17.236Z,97686.20
2024-02-26T16:02:49.810Z,97692.83
2024-02-26T16:05:20.961Z,97696.19
2024-02-26T16:07:59.926Z,97697.11
2024-02-26T16:10:30.931Z,97698.20
2024-02-26T16:13:02.442Z,97699.98
2024-02-26T16:15:33.862Z,97705.70
2024-02-26T16:18:03.592Z,97707.27
2024-02-26T16:20:34.756Z,97709.38
2024-02-26T16:23:07.938Z,97710.42
2024-02-26T16:25:39.176Z,97704.25
2024-02-26T16:28:12.199Z,97708.44
2024-02-26T16:30:41.423Z,97708.66
2024-02-26T16:33:10.572Z,97711.29
2024-02-26T16:35:39.626Z,97714.98
2024-02-26T16:38:08.739Z,97712.79
2024-02-26T16:40:38.443Z,97713.68
2024-02-26T16:43:11.835Z,97717.34
2024-02-26T16:45:41.105Z,97715.84
2024-02-26T16:48:10.237Z,97718.45
2024-02-26T16:50:39.373Z,97718.11
2024-02-26T16:53:09.136Z,97722.45
2024-02-26T16:55:38.605Z,97724.36
2024-02-26T16:58:07.759Z,97728.88
2024-02-26T17:00:36.632Z,97730.95
2024-02-26T17:03:06.002Z,97731.83
2024-02-26T17:05:35.696Z,97734.95
2024-02-26T17:08:04.669Z,97737.89
2024-02-26T17:10:33.788Z,97743.45
2024-02-26T17:13:03.221Z,97742.61
2024-02-26T17:15:31.854Z,97745.55
2024-02-26T17:18:02.127Z,97748.49
2024-02-26T17:20:31.069Z,97751.28
2024-02-26T17:23:01.003Z,97752.81
2024-02-26T17:25:30.538Z,97757.51
2024-02-26T17:28:00.097Z,97764.60
2024-02-26T17:30:29.039Z,97769.27
2024-02-26T17:32:59.288Z,97773.93
2024-02-26T17:35:28.891Z,97781.36
2024-02-26T17:37:58.948Z,97778.63
2024-02-26T17:40:29.618Z,97778.98
2024-02-26T17:43:00.761Z,97778.80
2024-02-26T17:45:31.184Z,97784.68
2024-02-26T17:48:00.057Z,97783.30
2024-02-26T17:50:29.054Z,97781.40
2024-02-26T17:52:58.675Z,97781.55
2024-02-26T17:55:27.726Z,97780.51
2024-02-26T17:57:56.622Z,97783.82
2024-02-26T18:00:26.249Z,97782.45
2024-02-26T18:02:58.358Z,97784.52
2024-02-26T18:05:31.483Z,97785.59
2024-02-26T18:08:02.278Z,97786.99
2024-02-26T18:10:38.159Z,97787.17
2024-02-26T18:13:11.673Z,97787.89
2024-02-26T18:15:46.108Z,97794.98
2024-02-26T18:18:18.922Z,97797.06
2024-02-26T18:20:57.160Z,97801.75
2024-02-26T18:23:37.835Z,97804.86
2024-02-26T18:26:18.771Z,97809.54
2024-02-26T18:28:53.220Z,97809.54
2024-02-26T18:31:26.766Z,97814.05
2024-02-26T18:33:57.981Z,97817.54
2024-02-26T18:36:33.800Z,97818.25
2024-02-26T18:39:11.682Z,97819.98
2024-02-26T18:41:43.607Z,97818.95
2024-02-26T18:44:16.780Z,97822.59
2024-02-26T18:46:49.227Z,97823.98
2024-02-26T18:49:18.281Z,97826.41
2024-02-26T18:51:50.093Z,97829.70
2024-02-26T18:54:20.512Z,97829.35
2024-02-26T18:56:49.178Z,97832.46
2024-02-26T18:59:18.288Z,97831.95
2024-02-26T19:01:47.641Z,97830.73
2024-02-26T19:04:16.475Z,97831.60
2024-02-26T19:06:48.981Z,97829.54
2024-02-26T19:09:18.232Z,97832.29
2024-02-26T19:11:53.365Z,97832.81
2024-02-26T19:14:22.678Z,97837.13
2024-02-26T19:16:51.643Z,97841.80
2024-02-26T19:19:20.852Z,97839.54
2024-02-26T19:21:50.019Z,97840.73
2024-02-26T19:24:18.951Z,97843.34
2024-02-26T19:26:48.069Z,97843.01
2024-02-26T19:29:17.151Z,97841.96
2024-02-26T19:31:47.391Z,97845.58
2024-02-26T19:34:16.644Z,97846.11
2024-02-26T19:36:47.351Z,97846.29
2024-02-26T19:39:16.032Z,97846.10
2024-02-26T19:41:44.957Z,97842.46
2024-02-26T19:44:14.672Z,97843.32
2024-02-26T19:46:43.552Z,97846.77
2024-02-26T19:49:14.830Z,97849.88
2024-02-26T19:51:44.812Z,97849.70
2024-02-26T19:54:17.107Z,97850.20
2024-02-26T19:56:48.139Z,97854.54
2024-02-26T19:59:17.315Z,97857.98
2024-02-26T20:01:46.537Z,97856.95
2024-02-26T20:04:17.497Z,97858.33
2024-02-26T20:06:46.989Z,97860.56
2024-02-26T20:09:16.317Z,97860.23
2024-02-26T20:11:45.345Z,97864.02
2024-02-26T20:14:16.150Z,97862.80
2024-02-26T20:16:45.521Z,97857.27
2024-02-26T20:19:14.647Z,97858.28
2024-02-26T20:21:43.938Z,97862.42
2024-02-26T20:24:13.608Z,97863.27
2024-02-26T20:26:45.171Z,97863.44
2024-02-26T20:29:17.739Z,97863.77
2024-02-26T20:31:49.370Z,97868.62
2024-02-26T20:34:19.974Z,97873.62
2024-02-26T20:36:48.925Z,97876.36
2024-02-26T20:39:20.551Z,97880.17
2024-02-26T20:41:49.934Z,97883.45
2024-02-26T20:44:18.754Z,97886.89
2024-02-26T20:46:47.774Z,97890.86
2024-02-26T20:49:19.450Z,97891.18
2024-02-26T20:51:48.493Z,97890.83
2024-02-26T20:54:19.075Z,97891.16
2024-02-26T20:56:51.695Z,97892.20
2024-02-26T20:59:20.421Z,97894.77
2024-02-26T21:01:49.806Z,97903.21
2024-02-26T21:04:22.121Z,97907.50
2024-02-26T21:06:54.847Z,97907.69
2024-02-26T21:09:24.244Z,97908.55
2024-02-26T21:11:55.450Z,97905.79
2024-02-26T21:14:27.830Z,97912.50
2024-02-26T21:16:56.537Z,97922.84
2024-02-26T21:19:28.663Z,97926.27
2024-02-26T21:21:59.027Z,97927.79
2024-02-26T21:24:27.795Z,97933.98
2024-02-26T21:26:56.539Z,97938.62
2024-02-26T21:29:25.923Z,97941.38
2024-02-26T21:31:55.176Z,97941.55
2024-02-26T21:34:24.206Z,97947.23
2024-02-26T21:36:53.623Z,97949.48
2024-02-26T21:39:22.332Z,97946.36
2024-02-26T21:41:51.078Z,97949.08
2024-02-26T21:44:20.451Z,97950.80
2024-02-26T21:46:50.180Z,97946.50
2024-02-26T21:49:18.998Z,97946.30
2024-02-26T21:51:51.126Z,97948.73
2024-02-26T21:54:20.468Z,97952.34
2024-02-26T21:56:49.191Z,97952.52
2024-02-26T21:59:18.518Z,97951.84
2024-02-26T22:01:47.243Z,97955.98
2024-02-26T22:04:16.418Z,97959.09
2024-02-26T22:06:46.285Z,97960.86
2024-02-26T22:09:15.198Z,97962.10
2024-02-26T22:11:44.041Z,97963.20
2024-02-26T22:14:13.331Z,97965.98
2024-02-26T22:16:42.320Z,97967.39
2024-02-26T22:19:15.923Z,97966.72
2024-02-26T22:21:45.026Z,97962.77
2024-02-26T22:24:14.422Z,97966.22
2024-02-26T22:26:45.912Z,97963.11
2024-02-26T22:29:15.719Z,97963.96
2024-02-26T22:31:44.365Z,97964.30
2024-02-26T22:34:13.265Z,97963.95
2024-02-26T22:36:42.941Z,97964.98
2024-02-26T22:39:13.435Z,97964.45
2024-02-26T22:41:44.276Z,97967.38
2024-02-26T22:44:13.117Z,97969.80
2024-02-26T22:46:42.921Z,97974.09
2024-02-26T22:49:12.186Z,97984.62
2024-02-26T22:51:41.545Z,97993.93
2024-02-26T22:54:10.488Z,97994.09
2024-02-26T22:56:39.666Z,97996.80
2024-02-26T22:59:08.638Z,97999.17
2024-02-26T23:01:37.661Z,97991.36
2024-02-26T23:04:07.042Z,97991.48
2024-02-26T23:06:36.018Z,97986.61
2024-02-26T23:09:05.297Z,97986.39
2024-02-26T23:11:42.959Z,97991.17
2024-02-26T23:14:16.740Z,97993.60
2024-02-26T23:16:46.969Z,97989.32
2024-02-26T23:19:15.773Z,97991.95
2024-02-26T23:21:45.012Z,97996.95
2024-02-26T23:24:16.014Z,98002.98
2024-02-26T23:26:44.775Z,98006.02
2024-02-26T23:29:14.068Z,98011.64
2024-02-26T23:31:43.945Z,98011.77
2024-02-26T23:34:12.976Z,98016.05
2024-02-26T23:36:42.428Z,98012.39
2024-02-26T23:39:11.586Z,98014.19
2024-02-26T23:41:40.408Z,98018.27
2024-02-26T23:44:09.381Z,98025.80
2024-02-26T23:46:39.307Z,98030.98
2024-02-26T23:49:08.150Z,98035.24
2024-02-26T23:51:37.178Z,98039.33
2024-02-26T23:54:06.335Z,98038.92
2024-02-26T23:56:35.117Z,98040.80
2024-02-26T23:59:04.560Z,98039.40
